createdAt,value
2022-12-03T00:01:35.145Z,40.20
2022-12-03T00:06:38.272Z,39.50
2022-12-03T00:11:40.756Z,41.70
2022-12-03T00:14:41.297Z,42.20
2022-12-03T00:17:16.569Z,40.60
2022-12-03T00:19:48.748Z,39.70
2022-12-03T00:22:21.158Z,42.40
2022-12-03T00:24:53.758Z,44.60
2022-12-03T00:27:26.447Z,45.30
2022-12-03T00:32:29.106Z,38.50
2022-12-03T00:37:31.775Z,47.20
2022-12-03T00:40:04.283Z,43.60
2022-12-03T00:42:36.400Z,45.50
2022-12-03T00:45:10.393Z,47.00
2022-12-03T00:47:42.637Z,45.70
2022-12-03T00:52:45.646Z,46.00
2022-12-03T00:55:18.308Z,42.80
2022-12-03T00:57:50.453Z,47.30
2022-12-03T01:02:57.464Z,42.80
2022-12-03T01:05:29.658Z,42.00
2022-12-03T01:08:02.007Z,40.50
2022-12-03T01:10:34.183Z,46.30
2022-12-03T01:15:37.014Z,42.40
2022-12-03T01:18:09.417Z,45.40
2022-12-03T01:23:12.078Z,46.00
2022-12-03T01:25:44.963Z,45.00
2022-12-03T01:31:05.212Z,50.30
2022-12-03T01:33:37.335Z,45.20
2022-12-03T01:38:40.208Z,43.50
2022-12-03T01:41:12.392Z,37.80
2022-12-03T01:43:44.800Z,49.10
2022-12-03T01:46:21.145Z,45.70
2022-12-03T01:48:56.042Z,44.10
2022-12-03T01:51:28.226Z,50.10
2022-12-03T01:56:31.246Z,46.90
2022-12-03T02:01:33.951Z,53.90
2022-12-03T02:06:37.008Z,46.00
2022-12-03T02:11:45.600Z,52.10
2022-12-03T02:14:21.125Z,49.20
2022-12-03T02:16:53.259Z,56.30
2022-12-03T02:22:06.521Z,45.30
2022-12-03T02:24:47.825Z,46.60
2022-12-03T02:27:19.832Z,50.40
2022-12-03T02:29:52.389Z,46.10
2022-12-03T02:32:25.022Z,53.00
2022-12-03T02:34:57.457Z,53.20
2022-12-03T02:40:05.596Z,49.40
2022-12-03T02:42:37.915Z,51.80
2022-12-03T02:45:16.313Z,46.20
2022-12-03T02:47:50.947Z,48.10
2022-12-03T02:50:27.458Z,56.40
2022-12-03T02:53:02.592Z,51.70
2022-12-03T02:55:37.394Z,46.90
2022-12-03T02:58:10.829Z,53.50
2022-12-03T03:00:43.789Z,42.00
2022-12-03T03:03:17.920Z,51.90
2022-12-03T03:05:52.130Z,47.70
2022-12-03T03:08:26.219Z,54.80
2022-12-03T03:11:01.074Z,50.30
2022-12-03T03:13:35.081Z,57.60
2022-12-03T03:16:09.114Z,48.70
2022-12-03T03:18:41.514Z,52.80
2022-12-03T03:21:14.823Z,51.20
2022-12-03T03:23:46.876Z,45.10
2022-12-03T03:28:52.319Z,51.50
2022-12-03T03:31:26.349Z,52.10
2022-12-03T03:33:58.585Z,46.30
2022-12-03T03:39:01.233Z,57.90
2022-12-03T03:41:33.926Z,50.00
2022-12-03T03:44:07.819Z,50.50
2022-12-03T03:46:41.136Z,47.90
2022-12-03T03:49:13.599Z,55.80
2022-12-03T03:51:45.853Z,54.60
2022-12-03T03:56:48.841Z,50.00
2022-12-03T03:59:21.059Z,57.30
2022-12-03T04:04:26.814Z,57.10
2022-12-03T04:06:59.793Z,51.10
2022-12-03T04:09:31.853Z,67.50
2022-12-03T04:14:52.364Z,52.80
2022-12-03T04:17:24.663Z,61.80
2022-12-03T04:19:56.868Z,54.40
2022-12-03T04:22:40.982Z,60.20
2022-12-03T04:25:30.585Z,64.50
2022-12-03T04:28:20.307Z,56.40
2022-12-03T04:30:52.444Z,54.70
2022-12-03T04:36:13.170Z,50.70
2022-12-03T04:38:46.039Z,51.40
2022-12-03T04:41:18.200Z,56.00
2022-12-03T04:44:04.449Z,49.70
2022-12-03T04:46:36.574Z,54.90
2022-12-03T04:51:39.410Z,55.50
2022-12-03T04:56:42.160Z,50.60
2022-12-03T04:59:16.754Z,50.20
2022-12-03T05:01:49.101Z,52.20
2022-12-03T05:04:21.262Z,54.40
2022-12-03T05:06:53.391Z,54.30
2022-12-03T05:09:25.801Z,55.80
2022-12-03T05:11:57.910Z,55.80
2022-12-03T05:14:29.844Z,59.60
2022-12-03T05:17:02.139Z,54.50
2022-12-03T05:19:51.839Z,57.90
2022-12-03T05:22:23.975Z,57.30
2022-12-03T05:24:56.335Z,59.20
2022-12-03T05:27:28.694Z,48.80
2022-12-03T05:30:01.023Z,60.70
2022-12-03T05:32:33.457Z,61.80
2022-12-03T05:37:36.149Z,60.50
2022-12-03T05:40:10.878Z,59.70
2022-12-03T05:42:56.795Z,54.00
2022-12-03T05:45:30.732Z,55.00
2022-12-03T05:48:03.591Z,57.70
2022-12-03T05:50:38.510Z,58.90
2022-12-03T05:53:20.172Z,58.20
2022-12-03T05:55:52.248Z,60.40
2022-12-03T05:58:24.640Z,58.90
2022-12-03T06:00:56.734Z,59.80
2022-12-03T06:03:28.892Z,57.90
2022-12-03T06:06:01.964Z,57.50
2022-12-03T06:08:34.120Z,59.20
2022-12-03T06:11:06.396Z,57.30
2022-12-03T06:13:38.384Z,56.10
2022-12-03T06:16:10.675Z,59.20
2022-12-03T06:18:42.749Z,57.30
2022-12-03T06:21:15.139Z,53.90
2022-12-03T06:26:18.009Z,47.70
2022-12-03T06:28:50.420Z,59.20
2022-12-03T06:31:23.283Z,58.90
2022-12-03T06:33:55.520Z,63.00
2022-12-03T06:39:00.541Z,56.00
2022-12-03T06:41:32.712Z,50.10
2022-12-03T06:46:35.638Z,60.00
2022-12-03T06:49:09.408Z,55.00
2022-12-03T06:51:41.623Z,54.60
2022-12-03T06:56:45.601Z,59.60
2022-12-03T06:59:17.779Z,60.60
2022-12-03T07:01:49.987Z,53.30
2022-12-03T07:04:22.125Z,58.00
2022-12-03T07:06:54.170Z,58.60
2022-12-03T07:09:26.455Z,54.90
2022-12-03T07:11:58.627Z,60.80
2022-12-03T07:14:30.609Z,63.90
2022-12-03T07:17:02.671Z,56.00
2022-12-03T07:19:34.716Z,54.30
2022-12-03T07:24:37.906Z,61.70
2022-12-03T07:29:40.468Z,55.40
2022-12-03T07:34:43.178Z,66.40
2022-12-03T07:42:18.372Z,70.50
2022-12-03T07:47:20.967Z,82.60
2022-12-03T07:52:23.640Z,76.40
2022-12-03T07:57:26.703Z,67.70
2022-12-03T07:59:58.978Z,76.30
2022-12-03T08:02:31.057Z,64.30
2022-12-03T08:05:03.367Z,82.60
2022-12-03T08:07:37.012Z,82.50
2022-12-03T08:10:10.768Z,86.70
2022-12-03T08:12:42.938Z,73.90
2022-12-03T08:17:48.749Z,76.60
2022-12-03T08:20:22.103Z,65.70
2022-12-03T08:22:55.153Z,67.80
2022-12-03T08:25:29.748Z,70.60
2022-12-03T08:28:12.112Z,77.60
2022-12-03T08:33:23.164Z,75.80
2022-12-03T08:35:55.191Z,68.70
2022-12-03T08:40:58.247Z,78.20
2022-12-03T08:43:36.717Z,79.20
2022-12-03T08:46:17.406Z,68.80
2022-12-03T08:48:49.862Z,70.30
2022-12-03T08:51:25.446Z,67.00
2022-12-03T08:54:04.812Z,72.70
2022-12-03T08:56:39.244Z,73.30
2022-12-03T08:59:25.740Z,66.80
2022-12-03T09:01:59.602Z,78.70
2022-12-03T09:04:38.140Z,77.60
2022-12-03T09:07:10.516Z,80.60
2022-12-03T09:09:42.943Z,81.60
2022-12-03T09:12:15.014Z,79.10
2022-12-03T09:14:48.537Z,94.00
2022-12-03T09:17:21.418Z,81.20
2022-12-03T09:19:53.954Z,90.00
2022-12-03T09:22:25.931Z,85.90
2022-12-03T09:24:58.932Z,75.60
2022-12-03T09:27:31.260Z,76.70
2022-12-03T09:30:03.423Z,72.00
2022-12-03T09:35:10.634Z,78.00
2022-12-03T09:37:42.748Z,66.40
2022-12-03T09:40:16.546Z,76.40
2022-12-03T09:42:49.169Z,75.30
2022-12-03T09:45:21.464Z,66.50
2022-12-03T09:50:26.439Z,82.80
2022-12-03T09:53:03.505Z,70.90
2022-12-03T09:55:35.973Z,73.90
2022-12-03T09:58:13.541Z,78.40
2022-12-03T10:00:48.811Z,77.50
2022-12-03T10:03:29.542Z,76.90
2022-12-03T10:06:02.029Z,74.40
2022-12-03T10:08:35.096Z,73.80
2022-12-03T10:11:07.616Z,85.40
2022-12-03T10:13:40.018Z,80.40
2022-12-03T10:16:15.525Z,82.60
2022-12-03T10:18:51.234Z,77.50
2022-12-03T10:21:27.344Z,81.70
2022-12-03T10:24:26.624Z,86.80
2022-12-03T10:29:57.492Z,77.20
2022-12-03T10:32:41.333Z,84.30
2022-12-03T10:35:15.814Z,78.00
2022-12-03T10:38:02.442Z,87.60
2022-12-03T10:40:36.556Z,88.50
2022-12-03T10:43:22.714Z,87.60
2022-12-03T10:46:13.270Z,81.40
2022-12-03T10:48:45.656Z,75.00
2022-12-03T10:51:21.353Z,78.40
2022-12-03T10:53:54.468Z,80.30
2022-12-03T10:56:50.418Z,79.40
2022-12-03T10:59:25.570Z,77.20
2022-12-03T11:04:48.292Z,78.00
2022-12-03T11:07:22.575Z,76.80
2022-12-03T11:09:58.939Z,75.40
2022-12-03T11:12:34.719Z,78.30
2022-12-03T11:15:15.761Z,81.60
2022-12-03T11:17:50.353Z,78.90
2022-12-03T11:21:05.543Z,79.30
2022-12-03T11:24:04.923Z,81.10
2022-12-03T11:27:18.206Z,90.70
2022-12-03T11:29:56.951Z,87.70
2022-12-03T11:33:09.190Z,72.20
2022-12-03T11:36:27.795Z,78.00
2022-12-03T11:39:11.158Z,79.90
2022-12-03T11:42:03.557Z,68.70
2022-12-03T11:44:36.981Z,79.00
2022-12-03T11:47:17.271Z,83.00
2022-12-03T11:49:52.678Z,81.00
2022-12-03T11:52:29.035Z,79.40
2022-12-03T11:55:06.944Z,82.70
2022-12-03T11:57:43.526Z,77.70
2022-12-03T12:00:27.185Z,77.90
2022-12-03T12:03:00.435Z,105.00
2022-12-03T12:05:35.776Z,89.20
2022-12-03T12:08:32.191Z,97.50
2022-12-03T12:11:29.872Z,84.80
2022-12-03T12:14:03.051Z,84.60
2022-12-03T12:16:50.546Z,84.30
2022-12-03T12:19:44.102Z,83.90
2022-12-03T12:22:18.778Z,80.40
2022-12-03T12:24:53.437Z,87.40
2022-12-03T12:27:32.452Z,84.30
2022-12-03T12:30:08.110Z,85.80
2022-12-03T12:32:47.336Z,86.10
2022-12-03T12:35:22.422Z,84.10
2022-12-03T12:38:00.197Z,80.90
2022-12-03T12:40:34.290Z,87.30
2022-12-03T12:43:18.889Z,84.70
2022-12-03T12:45:56.474Z,86.00
2022-12-03T12:48:32.376Z,87.80
2022-12-03T12:51:13.813Z,84.10
2022-12-03T12:53:46.133Z,91.00
2022-12-03T12:56:30.179Z,89.30
2022-12-03T12:59:13.457Z,88.50
2022-12-03T13:01:46.755Z,85.30
2022-12-03T13:04:22.155Z,97.10
2022-12-03T13:06:56.991Z,87.20
2022-12-03T13:09:30.991Z,90.20
2022-12-03T13:12:04.568Z,96.60
2022-12-03T13:14:38.720Z,94.80
2022-12-03T13:17:18.360Z,97.20
2022-12-03T13:19:58.233Z,98.10
2022-12-03T13:22:36.180Z,94.10
2022-12-03T13:25:58.867Z,99.10
2022-12-03T13:28:26.785Z,84.40
2022-12-03T13:31:02.854Z,98.00
2022-12-03T13:33:36.122Z,101.40
2022-12-03T13:36:15.156Z,100.20
2022-12-03T13:38:47.999Z,98.80
2022-12-03T13:41:39.921Z,100.60
2022-12-03T13:44:20.851Z,104.90
2022-12-03T13:46:53.170Z,97.90
2022-12-03T13:49:25.857Z,104.40
2022-12-03T13:51:58.206Z,100.50
2022-12-03T13:57:05.199Z,115.00
2022-12-03T13:59:37.392Z,96.10
2022-12-03T14:04:42.697Z,121.70
2022-12-03T14:12:26.840Z,125.60
2022-12-03T14:14:58.966Z,123.20
2022-12-03T14:17:31.558Z,117.20
2022-12-03T14:20:04.243Z,115.90
2022-12-03T14:22:38.140Z,121.90
2022-12-03T14:25:11.321Z,122.30
2022-12-03T14:27:43.463Z,115.40
2022-12-03T14:30:16.772Z,119.10
2022-12-03T14:32:48.949Z,130.90
2022-12-03T14:37:52.388Z,121.40
2022-12-03T14:40:27.266Z,126.60
2022-12-03T14:42:59.500Z,117.60
2022-12-03T14:45:33.149Z,123.10
2022-12-03T14:48:05.551Z,128.80
2022-12-03T14:50:38.021Z,122.80
2022-12-03T14:55:41.545Z,137.70
2022-12-03T14:58:13.598Z,137.30
2022-12-03T15:03:17.716Z,161.70
2022-12-03T15:05:50.883Z,142.10
2022-12-03T15:08:23.886Z,152.50
2022-12-03T15:10:57.577Z,147.60
2022-12-03T15:13:30.885Z,176.60
2022-12-03T15:16:04.296Z,159.50
2022-12-03T15:18:36.515Z,171.50
2022-12-03T15:21:08.827Z,163.20
2022-12-03T15:23:41.355Z,167.10
2022-12-03T15:26:13.487Z,169.30
2022-12-03T15:31:20.689Z,174.00
2022-12-03T15:33:52.992Z,175.10
2022-12-03T15:38:56.516Z,172.10
2022-12-03T15:41:30.136Z,161.70
2022-12-03T15:44:02.925Z,167.30
2022-12-03T15:46:35.326Z,150.60
2022-12-03T15:49:07.484Z,154.50
2022-12-03T15:54:47.033Z,150.90
2022-12-03T15:57:19.193Z,160.30
2022-12-03T15:59:51.582Z,156.40
2022-12-03T16:02:24.342Z,156.30
2022-12-03T16:04:57.326Z,161.60
2022-12-03T16:07:30.408Z,158.30
2022-12-03T16:10:03.717Z,151.00
2022-12-03T16:12:35.858Z,160.70
2022-12-03T16:17:39.285Z,145.60
2022-12-03T16:20:12.671Z,155.60
2022-12-03T16:22:44.709Z,152.40
2022-12-03T16:25:17.373Z,157.70
2022-12-03T16:27:49.480Z,150.20
2022-12-03T16:30:21.788Z,155.50
2022-12-03T16:32:53.803Z,164.20
2022-12-03T16:35:26.704Z,164.30
2022-12-03T16:37:59.488Z,155.40
2022-12-03T16:43:05.154Z,154.50
2022-12-03T16:45:54.050Z,154.10
2022-12-03T16:48:27.157Z,150.30
2022-12-03T16:51:03.124Z,162.80
2022-12-03T16:53:35.353Z,156.50
2022-12-03T16:56:07.893Z,152.60
2022-12-03T16:58:40.072Z,146.90
2022-12-03T17:01:12.752Z,148.50
2022-12-03T17:03:45.055Z,149.80
2022-12-03T17:08:49.875Z,146.50
2022-12-03T17:11:22.310Z,155.40
2022-12-03T17:13:54.241Z,166.00
2022-12-03T17:16:26.530Z,153.80
2022-12-03T17:18:58.857Z,153.00
2022-12-03T17:21:34.862Z,153.80
2022-12-03T17:24:07.983Z,147.20
2022-12-03T17:26:41.918Z,164.60
2022-12-03T17:29:14.286Z,169.20
2022-12-03T17:31:46.629Z,166.90
2022-12-03T17:34:18.705Z,171.90
2022-12-03T17:36:50.899Z,166.10
2022-12-03T17:39:23.202Z,161.90
2022-12-03T17:44:25.864Z,159.40
2022-12-03T17:46:59.458Z,150.30
2022-12-03T17:49:32.052Z,136.30
2022-12-03T17:52:04.439Z,158.70
2022-12-03T17:57:29.665Z,146.00
2022-12-03T18:00:01.736Z,145.90
2022-12-03T18:02:44.044Z,146.90
2022-12-03T18:05:16.300Z,137.10
2022-12-03T18:10:19.593Z,141.60
2022-12-03T18:12:51.691Z,157.70
2022-12-03T18:15:23.741Z,148.80
2022-12-03T18:17:56.069Z,163.30
2022-12-03T18:20:28.182Z,151.40
2022-12-03T18:23:02.197Z,170.80
2022-12-03T18:25:34.738Z,150.10
2022-12-03T18:28:07.473Z,135.30
2022-12-03T18:30:39.594Z,144.40
2022-12-03T18:35:42.948Z,153.80
2022-12-03T18:38:18.502Z,161.50
2022-12-03T18:40:54.855Z,160.00
2022-12-03T18:43:29.265Z,155.90
2022-12-03T18:46:04.588Z,172.10
2022-12-03T18:48:37.444Z,168.90
2022-12-03T18:51:17.268Z,169.00
2022-12-03T18:53:50.685Z,159.30
2022-12-03T18:56:23.473Z,169.00
2022-12-03T18:58:56.322Z,159.00
2022-12-03T19:01:30.425Z,153.00
2022-12-03T19:04:03.364Z,159.70
2022-12-03T19:06:36.053Z,166.30
2022-12-03T19:09:09.147Z,169.20
2022-12-03T19:11:41.908Z,158.20
2022-12-03T19:14:14.420Z,164.80
2022-12-03T19:16:47.178Z,161.90
2022-12-03T19:19:20.018Z,163.70
2022-12-03T19:21:52.088Z,160.30
2022-12-03T19:24:25.422Z,141.10
2022-12-03T19:26:58.548Z,161.00
2022-12-03T19:29:31.494Z,159.00
2022-12-03T19:32:04.389Z,156.50
2022-12-03T19:34:36.977Z,172.10
2022-12-03T19:37:09.440Z,145.50
2022-12-03T19:39:42.525Z,163.40
2022-12-03T19:42:15.854Z,163.90
2022-12-03T19:44:48.155Z,175.00
2022-12-03T19:47:21.151Z,176.20
2022-12-03T19:49:55.755Z,177.60
2022-12-03T19:52:28.148Z,161.40
2022-12-03T19:55:01.174Z,174.30
2022-12-03T19:57:33.238Z,156.30
2022-12-03T20:00:06.815Z,154.50
2022-12-03T20:02:44.380Z,168.20
2022-12-03T20:05:17.024Z,158.30
2022-12-03T20:07:49.090Z,154.00
2022-12-03T20:12:51.647Z,158.30
2022-12-03T20:15:23.881Z,169.40
2022-12-03T20:20:28.764Z,163.40
2022-12-03T20:23:01.846Z,163.70
2022-12-03T20:25:37.136Z,168.90
2022-12-03T20:28:10.775Z,167.30
2022-12-03T20:30:44.663Z,163.80
2022-12-03T20:33:17.415Z,160.90
2022-12-03T20:35:54.698Z,168.10
2022-12-03T20:38:29.004Z,168.00
2022-12-03T20:41:04.361Z,152.00
2022-12-03T20:43:37.902Z,143.30
2022-12-03T20:46:13.708Z,144.10
2022-12-03T20:48:47.105Z,153.90
2022-12-03T20:51:22.018Z,140.70
2022-12-03T20:53:54.853Z,156.20
2022-12-03T20:56:29.329Z,156.70
2022-12-03T20:59:05.407Z,167.40
2022-12-03T21:01:39.065Z,163.90
2022-12-03T21:04:14.746Z,162.90
2022-12-03T21:06:47.546Z,145.00
2022-12-03T21:09:19.674Z,149.30
2022-12-03T21:11:51.770Z,148.00
2022-12-03T21:17:11.962Z,127.80
2022-12-03T21:19:44.348Z,134.70
2022-12-03T21:22:17.744Z,129.70
2022-12-03T21:24:49.867Z,147.80
2022-12-03T21:27:22.121Z,131.50
2022-12-03T21:29:55.275Z,131.70
2022-12-03T21:32:27.645Z,131.20
2022-12-03T21:34:59.790Z,136.50
2022-12-03T21:37:57.112Z,129.10
2022-12-03T21:40:29.320Z,131.60
2022-12-03T21:45:32.441Z,128.60
2022-12-03T21:50:35.525Z,121.30
2022-12-03T21:53:07.965Z,124.70
2022-12-03T21:58:13.533Z,134.30
2022-12-03T22:03:16.335Z,125.60
2022-12-03T22:08:19.238Z,124.80
2022-12-03T22:10:51.360Z,108.00
2022-12-03T22:13:23.746Z,116.80
2022-12-03T22:15:55.802Z,112.40
2022-12-03T22:18:27.913Z,123.50
2022-12-03T22:20:59.958Z,115.70
2022-12-03T22:23:32.574Z,122.70
2022-12-03T22:26:07.151Z,118.50
2022-12-03T22:28:39.428Z,138.00
2022-12-03T22:31:12.257Z,139.80
2022-12-03T22:33:48.103Z,126.30
2022-12-03T22:36:21.985Z,117.30
2022-12-03T22:38:54.256Z,114.40
2022-12-03T22:41:26.317Z,119.20
2022-12-03T22:43:58.472Z,119.50
2022-12-03T22:49:06.717Z,99.10
2022-12-03T22:51:39.472Z,111.20
2022-12-03T22:56:43.721Z,99.00
2022-12-03T23:01:46.411Z,92.40
2022-12-03T23:04:18.670Z,100.00
2022-12-03T23:06:50.949Z,91.80
2022-12-03T23:09:23.239Z,104.10
2022-12-03T23:11:55.323Z,106.40
2022-12-03T23:16:58.279Z,79.80
2022-12-03T23:19:30.533Z,97.50
2022-12-03T23:24:33.225Z,100.10
2022-12-03T23:29:36.975Z,90.90
2022-12-03T23:32:09.057Z,98.80
2022-12-03T23:34:41.135Z,104.90
2022-12-03T23:39:43.702Z,94.80
2022-12-03T23:44:46.408Z,102.70
2022-12-03T23:49:49.169Z,93.30
2022-12-03T23:52:21.324Z,100.80
2022-12-03T23:57:23.939Z,104.00
